Time;durP1;ratioP1;P1;durP2;ratioP2;P2;SDS_P1;SDS_P2;PMS_P1;PMS_P2;Temp;Humidity;BMP_temperature;BMP_pressure;BME280_temperature;BME280_humidity;BME280_pressure;Samples;Min_cycle;Max_cycle;Signal;HPM_P1;HPM_P2
2022/04/18 00:01:04;;;;;;;5.67;4.50;;;;;;;1.39;100.00;101488.28;4948574;28;20629;-70
2022/04/18 00:07:38;;;;;;;7.00;4.57;;;;;;;1.30;100.00;101489.81;4939398;28;20247;-70
2022/04/18 00:13:38;;;;;;;5.23;4.10;;;;;;;1.45;100.00;101483.31;4944817;28;20301;-70
2022/04/18 00:17:00;;;;;;;7.73;4.23;;;;;;;1.30;100.00;101476.97;4949752;29;20302;-70
2022/04/18 00:23:02;;;;;;;;;;;;;;;;;;;;;
2022/04/18 00:26:31;;;;;;;5.33;4.23;;;;;;;1.20;100.00;101480.13;4952056;29;20252;-70
2022/04/18 00:35:57;;;;;;;7.47;4.80;;;;;;;1.15;100.00;101475.72;4937601;28;20717;-70
2022/04/18 00:42:43;;;;;;;5.93;4.70;;;;;;;0.98;100.00;101477.81;4944892;29;20214;-70
2022/04/18 00:45:39;;;;;;;6.23;4.90;;;;;;;0.93;100.00;101469.97;4920959;29;20615;-70
2022/04/18 00:55:30;;;;;;;7.17;4.97;;;;;;;0.87;100.00;101460.44;4950888;29;20198;-70
2022/04/18 00:58:36;;;;;;;5.53;4.27;;;;;;;0.88;100.00;101446.78;4950490;29;20198;-70
2022/04/18 01:02:01;;;;;;;;;;;;;;;;;;;;;
2022/04/18 01:05:22;;;;;;;5.83;4.30;;;;;;;0.72;100.00;101436.91;4891569;28;20206;-70
2022/04/18 01:15:04;;;;;;;6.93;4.60;;;;;;;0.61;100.00;101440.88;4950369;28;20206;-70
2022/04/18 01:18:48;;;;;;;5.67;4.43;;;;;;;0.62;100.00;101440.06;4949238;28;20805;-70
2022/04/18 01:22:12;;;;;;;8.50;4.93;;;;;;;0.64;100.00;101435.84;4934647;29;20539;-70
2022/04/18 01:32:02;;;;;;;7.90;4.97;;;;;;;0.49;100.00;101428.56;4934368;28;20226;-70
2022/04/18 01:35:05;;;;;;;7.27;5.13;;;;;;;0.40;100.00;101418.91;4957443;28;20214;-70
2022/04/18 01:38:00;;;;;;;6.47;4.83;;;;;;;0.35;100.00;101430.75;4947427;29;20230;-70
2022/04/18 01:43:46;;;;;;;6.70;5.17;;;;;;;0.41;100.00;101412.97;4893861;28;20208;-70
2022/04/18 01:46:49;;;;;;;7.30;5.20;;;;;;;0.38;100.00;101415.44;4951651;28;20312;-69
2022/04/18 01:50:10;;;;;;;;;;;;;;;;;;;;;
2022/04/18 01:53:33;;;;;;;;;;;;;;;;;;;;;
2022/04/18 01:57:04;;;;;;;8.43;5.60;;;;;;;0.34;100.00;101409.34;4949534;29;20241;-70
2022/04/18 02:00:41;;;;;;;5.63;4.87;;;;;;;0.24;100.00;101403.94;4897106;28;20306;-70
2022/04/18 02:12:39;;;;;;;6.03;4.73;;;;;;;0.15;100.00;101391.72;4913466;28;20629;-70
2022/04/18 02:19:16;;;;;;;;;;;;;;;;;;;;;
2022/04/18 02:22:20;;;;;;;8.13;5.33;;;;;;;0.06;100.00;101387.19;4940332;29;20234;-69
2022/04/18 02:28:56;;;;;;;10.17;5.90;;;;;;;0.22;100.00;101377.38;4947923;29;20207;-70
2022/04/18 02:35:22;;;;;;;8.93;5.90;;;;;;;0.05;100.00;101374.31;4949928;29;20213;-70
2022/04/18 02:38:33;;;;;;;7.73;5.80;;;;;;;0.00;100.00;101371.63;4852390;28;20219;-70
2022/04/18 02:41:29;;;;;;;9.00;6.00;;;;;;;0.03;100.00;101366.56;4930148;29;20210;-70
2022/04/18 02:44:52;;;;;;;8.37;6.03;;;;;;;-0.11;100.00;101367.88;4946699;29;20293;-70
2022/04/18 02:47:45;;;;;;;9.13;5.37;;;;;;;-0.12;100.00;101361.00;4944810;29;20210;-69
2022/04/18 02:51:20;;;;;;;10.30;5.63;;;;;;;-0.18;100.00;101356.56;4945926;29;20200;-70
2022/04/18 02:54:32;;;;;;;9.40;5.80;;;;;;;-0.19;100.00;101362.53;4930597;29;20674;-69
2022/04/18 03:01:24;;;;;;;8.97;5.53;;;;;;;-0.30;100.00;101356.19;4898760;29;20678;-70
2022/04/18 03:07:29;;;;;;;;;;;;;;;;;;;;;
2022/04/18 03:14:09;;;;;;;10.23;5.60;;;;;;;-0.41;100.00;101356.72;4908714;29;20286;-70
2022/04/18 03:17:31;;;;;;;8.57;6.30;;;;;;;-0.35;100.00;101352.63;4819479;29;20227;-70
2022/04/18 03:24:22;;;;;;;10.13;5.77;;;;;;;-0.41;100.00;101356.72;4890186;29;20204;-69
2022/04/18 03:27:44;;;;;;;10.07;6.20;;;;;;;-0.36;100.00;101346.63;4948828;28;20241;-70
2022/04/18 03:30:23;;;;;;;7.97;6.03;;;;;;;-0.54;100.00;101343.53;4937227;29;20449;-70
2022/04/18 03:33:31;;;;;;;12.30;6.47;;;;;;;-0.53;100.00;101347.81;4944980;29;20197;-70
2022/04/18 03:40:02;;;;;;;8.30;5.97;;;;;;;-0.52;100.00;101352.13;4948687;28;20210;-70
2022/04/18 03:49:56;;;;;;;8.13;5.70;;;;;;;-0.65;100.00;101343.16;4930844;29;20706;-70
2022/04/18 03:56:07;;;;;;;9.37;6.43;;;;;;;-0.62;100.00;101336.44;4934321;29;20238;-70
2022/04/18 04:05:57;;;;;;;9.37;6.33;;;;;;;-0.73;100.00;101336.97;4957673;28;20222;-70
2022/04/18 04:09:13;;;;;;;9.03;6.27;;;;;;;-0.71;100.00;101336.19;4950331;29;20242;-70
2022/04/18 04:12:08;;;;;;;10.90;7.00;;;;;;;-0.78;100.00;101327.41;4947586;29;20236;-69
2022/04/18 04:18:03;;;;;;;12.00;7.70;;;;;;;-0.71;100.00;101322.50;4951654;29;20217;-70
2022/04/18 04:20:48;;;;;;;11.90;6.70;;;;;;;-0.66;100.00;101324.38;4953261;28;20207;-70
2022/04/18 04:24:25;;;;;;;13.97;6.90;;;;;;;-0.68;100.00;101330.28;4951887;29;20739;-70
2022/04/18 04:31:02;;;;;;;10.77;6.70;;;;;;;-0.62;100.00;101320.22;4890022;29;20461;-69
2022/04/18 04:34:55;;;;;;;10.37;6.73;;;;;;;-0.46;100.00;101317.31;4889039;29;20303;-69
2022/04/18 04:42:04;;;;;;;13.60;7.23;;;;;;;-0.46;100.00;101319.00;4875720;29;20209;-70
2022/04/18 04:47:55;;;;;;;11.77;7.17;;;;;;;-0.42;100.00;101310.59;4917808;28;20224;-69
2022/04/18 05:00:25;;;;;;;14.13;7.77;;;;;;;-0.23;100.00;101327.34;4947242;28;20717;-69
2022/04/18 05:09:34;;;;;;;12.40;8.30;;;;;;;0.17;100.00;101324.22;4940773;28;20217;-70
2022/04/18 05:12:34;;;;;;;;;;;;;;;;;;;;;
2022/04/18 05:15:22;;;;;;;15.70;9.93;;;;;;;0.26;100.00;101325.31;4944946;29;20206;-70
2022/04/18 05:18:27;;;;;;;12.80;8.73;;;;;;;0.51;100.00;101327.72;4947783;29;20225;-70
2022/04/18 05:21:32;;;;;;;14.10;9.37;;;;;;;0.16;100.00;101329.34;4933844;29;20203;-70
2022/04/18 05:24:55;;;;;;;17.50;9.63;;;;;;;0.18;100.00;101330.25;4962442;28;20692;-70
2022/04/18 05:31:17;;;;;;;17.10;9.97;;;;;;;0.50;100.00;101323.41;4850816;29;20206;-70
2022/04/18 05:34:10;;;;;;;12.73;9.17;;;;;;;0.65;100.00;101314.34;4912896;29;20194;-70
2022/04/18 05:37:31;;;;;;;;;;;;;;;;;;;;;
2022/04/18 05:40:54;;;;;;;16.27;9.77;;;;;;;0.93;100.00;101336.44;4946420;29;20616;-70
2022/04/18 05:43:50;;;;;;;16.17;10.23;;;;;;;1.12;100.00;101341.22;4949929;28;20230;-70
2022/04/18 05:46:56;;;;;;;20.13;11.60;;;;;;;1.30;100.00;101337.34;4887282;29;20228;-70
2022/04/18 05:49:58;;;;;;;18.80;11.43;;;;;;;1.49;100.00;101343.78;4938064;29;20207;-70
2022/04/18 05:52:41;;;;;;;17.87;11.13;;;;;;;1.62;100.00;101348.38;4949944;29;20428;-70
2022/04/18 05:56:06;;;;;;;15.77;9.40;;;;;;;1.77;100.00;101345.25;4950637;28;20226;-70
2022/04/18 05:59:28;;;;;;;14.87;9.73;;;;;;;1.87;100.00;101357.47;4950156;28;20252;-70
2022/04/18 06:02:47;;;;;;;13.77;9.17;;;;;;;2.02;100.00;101349.22;4946590;29;20215;-70
2022/04/18 06:05:44;;;;;;;14.93;9.47;;;;;;;2.18;100.00;101342.69;4945900;29;20297;-70
2022/04/18 06:08:57;;;;;;;16.57;10.10;;;;;;;2.35;100.00;101355.00;4941012;28;20220;-70
2022/04/18 06:12:03;;;;;;;14.03;9.20;;;;;;;2.53;100.00;101355.31;4947921;29;20328;-70
2022/04/18 06:14:53;;;;;;;12.30;8.70;;;;;;;2.71;100.00;101351.34;4949955;29;20207;-70
2022/04/18 06:17:51;;;;;;;12.77;8.40;;;;;;;2.94;100.00;101352.63;4946961;29;20246;-70
2022/04/18 06:24:16;;;;;;;;;;;;;;;;;;;;;
2022/04/18 06:30:34;;;;;;;10.33;6.63;;;;;;;3.59;100.00;101366.53;4934780;29;20631;-70
2022/04/18 06:34:12;;;;;;;11.23;7.30;;;;;;;3.66;99.13;101372.63;4946707;28;20338;-70
2022/04/18 06:36:48;;;;;;;10.53;7.43;;;;;;;3.75;98.65;101370.19;4929318;29;20226;-70
2022/04/18 06:43:49;;;;;;;10.73;7.10;;;;;;;3.95;96.14;101373.88;4951906;28;20248;-70
2022/04/18 06:46:43;;;;;;;10.60;7.67;;;;;;;4.10;95.56;101368.06;4947878;28;20226;-70
2022/04/18 06:50:11;;;;;;;9.33;6.50;;;;;;;4.26;93.92;101373.41;4961496;28;20220;-70
2022/04/18 06:53:52;;;;;;;8.00;5.93;;;;;;;4.49;91.63;101371.09;4944696;28;20241;-70
2022/04/18 06:57:05;;;;;;;11.60;7.17;;;;;;;4.58;90.06;101370.31;4951587;28;20222;-70
2022/04/18 07:00:19;;;;;;;8.37;6.30;;;;;;;4.82;89.30;101368.00;4943565;28;20665;-70
2022/04/18 07:03:15;;;;;;;8.93;5.93;;;;;;;5.00;87.04;101369.00;4947484;29;20214;-70
2022/04/18 07:09:13;;;;;;;10.70;5.93;;;;;;;5.28;85.80;101370.94;4947127;29;20202;-70
2022/04/18 07:12:26;;;;;;;8.77;5.83;;;;;;;5.36;82.66;101383.94;4938394;29;20549;-70
2022/04/18 07:15:33;;;;;;;9.57;5.53;;;;;;;5.48;82.14;101385.75;4943087;28;20566;-70
2022/04/18 07:18:07;;;;;;;7.60;5.37;;;;;;;5.50;80.51;101382.34;4870914;29;20765;-70
2022/04/18 07:21:23;;;;;;;9.60;5.33;;;;;;;5.76;80.33;101385.94;4945902;29;20739;-70
2022/04/18 07:27:12;;;;;;;7.63;4.87;;;;;;;6.02;74.69;101393.88;4945709;29;20346;-70
2022/04/18 07:30:32;;;;;;;7.20;5.20;;;;;;;6.14;74.17;101396.53;4942937;29;20286;-70
2022/04/18 07:33:15;;;;;;;8.53;6.90;;;;;;;6.27;76.58;101381.03;4958043;28;20203;-70
2022/04/18 07:36:13;;;;;;;8.17;5.63;;;;;;;6.43;70.83;101398.34;4946959;28;20716;-70
2022/04/18 07:39:14;;;;;;;14.33;7.40;;;;;;;6.62;63.60;101394.09;4939957;29;20306;-70
2022/04/18 07:46:01;;;;;;;8.23;5.60;;;;;;;6.90;63.13;101395.00;4936242;29;20223;-70
2022/04/18 07:49:02;;;;;;;5.43;4.43;;;;;;;7.03;61.66;101398.47;4947241;29;20207;-70
2022/04/18 07:51:55;;;;;;;7.30;5.07;;;;;;;7.07;58.08;101396.75;4946181;29;20238;-70
2022/04/18 07:58:04;;;;;;;7.60;5.07;;;;;;;7.23;59.69;101395.00;4949011;28;20244;-70
2022/04/18 08:00:45;;;;;;;6.30;4.20;;;;;;;7.26;57.72;101400.22;4947146;29;20626;-70
2022/04/18 08:03:57;;;;;;;6.43;4.60;;;;;;;7.35;58.30;101389.81;4942960;29;20640;-70
2022/04/18 08:07:16;;;;;;;8.37;5.47;;;;;;;7.52;57.19;101395.00;4947366;29;20308;-70
2022/04/18 08:13:34;;;;;;;6.27;4.30;;;;;;;7.87;59.01;101386.28;4884262;29;20673;-70
2022/04/18 08:20:19;;;;;;;6.60;4.07;;;;;;;8.03;55.08;101377.56;4906212;28;20200;-70
2022/04/18 08:23:11;;;;;;;5.27;3.87;;;;;;;8.09;53.85;101381.88;4935584;28;20692;-70
2022/04/18 08:26:45;;;;;;;5.73;3.50;;;;;;;8.24;52.46;101380.97;4883418;29;20272;-70
2022/04/18 08:36:37;;;;;;;4.37;2.93;;;;;;;8.40;49.14;101384.34;4913002;29;20234;-70
2022/04/18 08:39:47;;;;;;;4.30;3.20;;;;;;;8.63;49.41;101379.06;4942697;29;20221;-70
2022/04/18 08:43:15;;;;;;;;;;;;;;;;;;;;;
2022/04/18 08:46:09;;;;;;;4.40;3.20;;;;;;;8.88;51.88;101365.03;4949593;28;20227;-70
2022/04/18 08:55:28;;;;;;;4.87;2.97;;;;;;;9.20;48.02;101358.72;4940313;29;20199;-70
2022/04/18 08:58:17;;;;;;;6.63;3.40;;;;;;;9.44;48.95;101349.78;4843028;29;20212;-70
2022/04/18 09:01:33;;;;;;;4.20;3.13;;;;;;;9.39;48.31;101358.53;4946851;29;20235;-70
2022/04/18 09:04:38;;;;;;;6.97;3.50;;;;;;;9.55;47.91;101352.31;4945112;29;20226;-70
2022/04/18 09:07:42;;;;;;;6.70;3.60;;;;;;;9.47;47.31;101347.16;4940601;28;20317;-70
2022/04/18 09:10:49;;;;;;;5.00;3.53;;;;;;;9.42;47.56;101350.69;4949918;29;20246;-70
2022/04/18 09:17:06;;;;;;;5.33;3.07;;;;;;;9.63;51.19;101329.63;4947199;29;20227;-69
2022/04/18 09:20:35;;;;;;;5.33;3.27;;;;;;;9.87;51.19;101327.66;4950166;29;20292;-70
2022/04/18 09:27:11;;;;;;;3.40;2.60;;;;;;;10.03;45.97;101333.53;4945189;28;20256;-70
2022/04/18 09:33:48;;;;;;;4.13;2.30;;;;;;;10.11;45.63;101323.00;4946859;29;20307;-70
2022/04/18 09:37:39;;;;;;;3.53;2.30;;;;;;;10.36;45.17;101316.63;4949077;28;20570;-69
2022/04/18 09:40:32;;;;;;;4.67;2.60;;;;;;;10.49;44.20;101321.66;4945575;28;20215;-70
2022/04/18 09:43:50;;;;;;;3.10;2.20;;;;;;;10.50;45.14;101310.31;4866690;29;20260;-69
2022/04/18 09:46:59;;;;;;;3.83;2.33;;;;;;;10.48;46.27;101293.84;4869936;29;20758;-69
2022/04/18 09:50:01;;;;;;;2.80;1.97;;;;;;;10.54;45.03;101296.38;4882343;28;20618;-69
2022/04/18 09:53:16;;;;;;;3.20;2.30;;;;;;;10.63;45.94;101292.75;4946497;29;20202;-70
2022/04/18 09:56:18;;;;;;;3.63;2.43;;;;;;;10.69;44.65;101296.09;4944670;29;20367;-70
2022/04/18 09:59:14;;;;;;;1.90;1.60;;;;;;;10.58;44.19;101292.81;4937385;29;20195;-70
2022/04/18 10:05:15;;;;;;;2.33;2.13;;;;;;;10.75;44.92;101271.69;4947221;29;20224;-70
2022/04/18 10:08:06;;;;;;;2.50;2.03;;;;;;;10.89;45.29;101266.25;4948576;29;20199;-70
2022/04/18 10:10:51;;;;;;;3.00;2.00;;;;;;;11.06;45.44;101265.94;4948972;28;20289;-70
2022/04/18 10:13:25;;;;;;;4.77;2.20;;;;;;;11.15;44.86;101261.44;4949755;28;20218;-70
2022/04/18 10:19:07;;;;;;;2.70;1.97;;;;;;;11.28;43.13;101266.41;4927754;28;20685;-70
2022/04/18 10:22:07;;;;;;;;;;;;;;;;;;;;;
2022/04/18 10:28:47;;;;;;;2.73;1.80;;;;;;;11.12;44.38;101244.97;4942524;29;20212;-70
2022/04/18 10:31:26;;;;;;;2.20;1.80;;;;;;;11.17;43.65;101245.75;4949654;28;20307;-69
2022/04/18 10:34:00;;;;;;;2.73;1.77;;;;;;;11.29;43.00;101242.91;4948961;28;20195;-70
2022/04/18 10:36:55;;;;;;;2.83;2.00;;;;;;;11.30;44.44;101230.69;4947043;29;20351;-69
2022/04/18 10:39:33;;;;;;;2.23;1.77;;;;;;;11.35;43.57;101240.16;4946906;29;20290;-69
2022/04/18 10:42:19;;;;;;;2.63;1.90;;;;;;;11.31;45.43;101222.84;4944581;29;20306;-70
2022/04/18 10:45:14;;;;;;;2.00;1.80;;;;;;;11.32;45.06;101215.84;4945540;29;20279;-70
2022/04/18 10:48:08;;;;;;;1.80;1.70;;;;;;;11.47;46.70;101205.13;4946684;28;20225;-70
2022/04/18 10:50:51;;;;;;;2.97;1.80;;;;;;;11.55;44.25;101218.84;4949236;28;20198;-69
2022/04/18 10:53:38;;;;;;;1.83;1.60;;;;;;;11.65;44.83;101200.41;4951222;28;20208;-70
2022/04/18 10:56:18;;;;;;;4.03;1.90;;;;;;;11.75;46.73;101191.47;4946097;29;20219;-70
2022/04/18 10:58:56;;;;;;;1.97;1.60;;;;;;;11.93;43.97;101206.75;4948873;28;21012;-70
2022/04/18 11:01:44;;;;;;;2.23;1.47;;;;;;;11.84;42.84;101203.47;4944161;28;20215;-69
2022/04/18 11:04:24;;;;;;;2.27;1.50;;;;;;;12.05;42.00;101207.41;4947601;28;20208;-70
2022/04/18 11:07:00;;;;;;;1.40;1.27;;;;;;;12.16;41.65;101194.91;4948049;29;20230;-69
2022/04/18 11:09:31;;;;;;;1.73;1.37;;;;;;;12.31;42.08;101191.94;4948207;28;20222;-69
2022/04/18 11:12:06;;;;;;;2.83;1.40;;;;;;;12.39;42.87;101176.06;4949028;28;20260;-70
2022/04/18 11:14:46;;;;;;;1.47;1.37;;;;;;;12.49;41.21;101187.16;4942587;29;20550;-69
2022/04/18 11:17:26;;;;;;;2.20;1.67;;;;;;;12.54;40.89;101184.41;4939489;29;20225;-69
2022/04/18 11:19:52;;;;;;;2.57;1.50;;;;;;;12.61;41.94;101178.13;4944579;29;20199;-70
2022/04/18 11:22:21;;;;;;;1.80;1.47;;;;;;;12.68;41.21;101182.28;4946975;29;20213;-70
2022/04/18 11:25:01;;;;;;;2.10;1.70;;;;;;;12.73;40.84;101185.66;4947419;28;20308;-70
2022/04/18 11:27:32;;;;;;;3.77;1.90;;;;;;;12.87;44.16;101156.50;4941558;29;20201;-69
2022/04/18 11:30:01;;;;;;;1.97;1.70;;;;;;;12.88;43.03;101168.69;4943894;29;20209;-69
2022/04/18 11:32:30;;;;;;;2.53;1.90;;;;;;;12.87;41.01;101175.69;4942477;28;20207;-69
2022/04/18 11:34:59;;;;;;;2.50;1.77;;;;;;;12.82;41.19;101167.13;4944001;29;20223;-70
2022/04/18 11:37:27;;;;;;;3.57;1.80;;;;;;;12.78;40.14;101172.47;4949044;28;20231;-69
2022/04/18 11:39:55;;;;;;;2.60;1.80;;;;;;;12.96;40.38;101169.31;4948480;28;20766;-69
2022/04/18 11:42:23;;;;;;;2.40;1.80;;;;;;;13.12;39.15;101171.53;4943029;28;20215;-70
2022/04/18 11:44:51;;;;;;;2.13;1.60;;;;;;;13.13;41.00;101162.78;4943751;28;20217;-69
2022/04/18 11:47:21;;;;;;;2.80;1.80;;;;;;;13.19;43.00;101147.78;4947363;29;20855;-69
2022/04/18 11:49:53;;;;;;;3.00;1.90;;;;;;;13.31;39.91;101162.28;4946664;29;20627;-70
2022/04/18 11:52:21;;;;;;;2.40;1.83;;;;;;;13.29;40.94;101150.97;4946650;28;20260;-70
2022/04/18 11:54:56;;;;;;;3.37;1.80;;;;;;;13.27;39.41;101150.16;4947831;28;20229;-70
2022/04/18 11:57:22;;;;;;;2.17;1.90;;;;;;;13.10;38.58;101158.47;4948269;28;20219;-70
2022/04/18 11:59:48;;;;;;;3.23;1.40;;;;;;;13.17;39.50;101153.94;4949316;28;20208;-70
2022/04/18 12:07:46;;;;;;;3.47;2.00;;;;;;;13.37;43.05;101120.22;4950503;29;20224;-70
2022/04/18 12:10:20;;;;;;;2.10;1.50;;;;;;;13.30;40.11;101123.88;4951456;28;20941;-69
2022/04/18 12:12:48;;;;;;;2.60;1.83;;;;;;;13.41;38.48;101132.31;4948162;28;20772;-70
2022/04/18 12:15:15;;;;;;;1.70;1.33;;;;;;;13.39;36.72;101131.50;4950417;29;20290;-70
2022/04/18 12:17:42;;;;;;;1.93;1.53;;;;;;;13.41;38.45;101118.34;4952113;28;20206;-70
2022/04/18 12:20:25;;;;;;;2.47;1.40;;;;;;;13.68;40.55;101114.03;4951682;28;21018;-70
2022/04/18 12:22:53;;;;;;;1.83;1.37;;;;;;;13.78;39.59;101110.22;4950215;29;20214;-70
2022/04/18 12:25:21;;;;;;;1.40;1.30;;;;;;;13.83;38.58;101115.31;4950045;28;20230;-70
2022/04/18 12:27:47;;;;;;;1.67;1.50;;;;;;;13.78;36.58;101122.47;4951295;28;20198;-70
2022/04/18 12:30:14;;;;;;;4.07;1.20;;;;;;;13.60;36.55;101114.28;4951293;28;20203;-70
2022/04/18 12:32:41;;;;;;;1.63;1.40;;;;;;;13.68;40.14;101098.28;4951381;28;20211;-69
2022/04/18 12:35:08;;;;;;;2.80;1.50;;;;;;;13.63;38.46;101098.47;4951271;28;20198;-70
2022/04/18 12:37:36;;;;;;;2.20;1.47;;;;;;;13.57;36.93;101098.63;4945088;28;20209;-70
2022/04/18 12:40:13;;;;;;;4.23;1.30;;;;;;;13.68;35.79;101097.44;4946372;29;20196;-70
2022/04/18 12:42:40;;;;;;;1.60;1.10;;;;;;;13.77;36.96;101094.53;4947203;29;20204;-70
2022/04/18 12:45:07;;;;;;;1.97;1.30;;;;;;;13.82;34.78;101090.88;4940584;28;20239;-70
2022/04/18 12:47:33;;;;;;;1.50;1.20;;;;;;;13.74;34.65;101082.41;4948064;29;20211;-70
2022/04/18 12:50:08;;;;;;;2.03;1.30;;;;;;;13.70;34.75;101079.91;4946338;29;20259;-70
2022/04/18 12:52:46;;;;;;;1.53;1.20;;;;;;;13.67;35.99;101069.53;4950924;28;20217;-70
2022/04/18 12:55:13;;;;;;;2.90;1.43;;;;;;;13.80;34.48;101068.22;4942948;28;20199;-70
2022/04/18 12:57:39;;;;;;;2.33;1.20;;;;;;;14.00;35.53;101064.94;4953903;28;20679;-70
2022/04/18 13:00:10;;;;;;;1.30;1.10;;;;;;;13.95;35.18;101072.13;4945259;28;20723;-70
2022/04/18 13:02:38;;;;;;;1.93;1.30;;;;;;;13.94;36.33;101052.91;4953648;28;20199;-70
2022/04/18 13:05:06;;;;;;;1.63;1.10;;;;;;;13.90;36.19;101053.06;4953389;28;20223;-71
2022/04/18 13:07:40;;;;;;;3.17;1.70;;;;;;;14.05;34.37;101059.56;4950825;28;20206;-71
2022/04/18 13:10:08;;;;;;;1.90;1.30;;;;;;;14.06;36.36;101048.19;4950372;28;20870;-71
2022/04/18 13:12:34;;;;;;;1.23;1.00;;;;;;;14.04;34.69;101050.00;4949284;28;20206;-71
2022/04/18 13:15:04;;;;;;;3.43;1.30;;;;;;;14.06;35.17;101043.78;4943242;29;20202;-71
2022/04/18 13:17:32;;;;;;;3.37;1.40;;;;;;;14.09;35.61;101034.94;4948284;29;20201;-71
2022/04/18 13:19:59;;;;;;;1.30;1.07;;;;;;;13.96;33.29;101045.00;4950856;28;20209;-71
2022/04/18 13:22:25;;;;;;;1.20;0.97;;;;;;;14.08;34.23;101039.34;4946137;28;20302;-71
2022/04/18 13:24:53;;;;;;;1.13;1.00;;;;;;;14.01;33.18;101040.44;4949488;29;20227;-71
2022/04/18 13:27:24;;;;;;;1.73;1.20;;;;;;;14.03;33.22;101030.75;4944024;28;20829;-71
2022/04/18 13:29:50;;;;;;;2.03;1.30;;;;;;;14.05;33.37;101034.19;4950056;28;20201;-71
2022/04/18 13:32:17;;;;;;;1.50;0.97;;;;;;;14.02;32.57;101029.91;4949830;28;20696;-71
2022/04/18 13:34:43;;;;;;;2.10;1.20;;;;;;;14.06;33.55;101021.97;4949731;28;20227;-71
2022/04/18 13:37:11;;;;;;;1.87;1.40;;;;;;;14.23;33.18;101026.59;4945766;28;20222;-71
2022/04/18 13:39:37;;;;;;;1.27;1.07;;;;;;;14.11;35.50;101012.16;4943043;28;20209;-71
2022/04/18 13:42:05;;;;;;;1.40;1.10;;;;;;;14.25;33.49;101014.28;4947185;28;20203;-71
2022/04/18 13:44:31;;;;;;;0.93;0.80;;;;;;;14.27;33.56;101018.56;4947065;28;20235;-71
2022/04/18 13:46:58;;;;;;;1.63;1.07;;;;;;;14.19;32.63;101018.88;4948417;29;20282;-71
2022/04/18 13:49:24;;;;;;;2.33;1.00;;;;;;;14.38;33.30;101015.56;4949060;28;20210;-71
2022/04/18 13:51:51;;;;;;;1.13;0.87;;;;;;;14.26;32.98;101003.75;4948281;28;20216;-71
2022/04/18 13:54:17;;;;;;;1.93;0.97;;;;;;;14.12;33.09;101006.00;4951465;28;20217;-71
2022/04/18 13:56:46;;;;;;;1.67;1.10;;;;;;;14.25;33.12;101006.41;4949761;28;21723;-71
2022/04/18 13:59:16;;;;;;;1.47;1.00;;;;;;;14.28;33.46;101001.94;4947070;28;20283;-71
2022/04/18 14:01:43;;;;;;;1.73;1.10;;;;;;;14.21;33.50;100984.69;4952551;28;20207;-71
2022/04/18 14:04:10;;;;;;;1.37;0.90;;;;;;;14.09;33.66;100993.00;4950089;28;20275;-71
2022/04/18 14:06:37;;;;;;;2.57;1.23;;;;;;;14.06;34.56;100990.50;4947840;28;20274;-71
2022/04/18 14:09:03;;;;;;;1.47;1.00;;;;;;;14.28;34.86;100986.22;4941328;28;20228;-71
2022/04/18 14:11:30;;;;;;;1.57;0.90;;;;;;;14.17;34.38;100983.94;4944565;28;21027;-71
2022/04/18 14:13:56;;;;;;;2.30;1.07;;;;;;;14.22;34.31;100982.94;4946859;29;20616;-71
2022/04/18 14:21:52;;;;;;;1.23;1.07;;;;;;;14.17;34.06;100972.59;4946569;28;20278;-71
2022/04/18 14:24:19;;;;;;;1.20;1.03;;;;;;;14.20;33.19;100973.34;4947245;28;20267;-71
2022/04/18 14:26:46;;;;;;;1.13;1.00;;;;;;;14.23;33.69;100968.91;4944788;28;20230;-71
2022/04/18 14:29:12;;;;;;;1.23;0.97;;;;;;;14.15;33.30;100979.69;4943999;28;20219;-71
2022/04/18 14:31:40;;;;;;;2.30;1.00;;;;;;;14.05;32.85;100967.78;4945052;28;20207;-71
2022/04/18 14:34:07;;;;;;;1.60;0.90;;;;;;;14.01;33.51;100972.28;4951722;28;20198;-71
2022/04/18 14:36:33;;;;;;;1.80;1.30;;;;;;;13.92;32.72;100970.00;4948109;28;20219;-71
2022/04/18 14:39:00;;;;;;;2.13;1.13;;;;;;;13.95;33.30;100964.66;4943779;29;20219;-71
2022/04/18 14:41:26;;;;;;;1.40;0.90;;;;;;;13.95;33.32;100962.03;4945470;28;20220;-71
2022/04/18 14:43:53;;;;;;;2.47;1.37;;;;;;;14.04;33.52;100951.22;4943331;28;20577;-71
2022/04/18 14:46:20;;;;;;;2.47;1.20;;;;;;;14.08;32.15;100965.91;4948580;28;20259;-71
2022/04/18 14:48:49;;;;;;;1.57;1.00;;;;;;;14.01;31.26;100961.81;4945918;28;20211;-71
2022/04/18 14:51:15;;;;;;;1.33;1.03;;;;;;;13.99;32.19;100958.38;4947798;28;20219;-71
2022/04/18 14:53:43;;;;;;;1.50;1.40;;;;;;;13.94;31.96;100957.69;4953562;28;20204;-71
2022/04/18 14:56:09;;;;;;;2.73;1.60;;;;;;;13.92;31.19;100951.66;4948227;28;20223;-71
2022/04/18 14:58:36;;;;;;;2.93;1.10;;;;;;;13.90;31.88;100958.72;4947837;28;20210;-71
2022/04/18 15:01:03;;;;;;;2.13;1.77;;;;;;;13.85;31.37;100956.25;4946728;28;20218;-71
2022/04/18 15:03:30;;;;;;;1.30;1.10;;;;;;;13.77;30.98;100959.13;4946990;29;20229;-71
2022/04/18 15:05:57;;;;;;;2.30;1.70;;;;;;;13.75;31.44;100955.69;4946594;29;20234;-71
2022/04/18 15:08:23;;;;;;;2.33;1.50;;;;;;;13.70;30.74;100946.28;4948469;28;20227;-71
2022/04/18 15:10:52;;;;;;;1.37;1.20;;;;;;;13.73;31.37;100943.56;4948207;28;20222;-71
2022/04/18 15:13:19;;;;;;;2.07;1.27;;;;;;;13.69;31.09;100942.81;4948140;28;20210;-69
2022/04/18 15:15:45;;;;;;;2.67;1.30;;;;;;;13.70;31.57;100941.03;4947087;28;20227;-69
2022/04/18 15:18:13;;;;;;;1.47;1.37;;;;;;;13.81;31.99;100946.78;4946100;28;20214;-70
2022/04/18 15:20:39;;;;;;;2.50;1.90;;;;;;;13.77;31.37;100947.78;4942488;28;20294;-70
2022/04/18 15:23:07;;;;;;;1.77;1.43;;;;;;;13.57;31.28;100943.22;4942491;28;20678;-70
2022/04/18 15:25:33;;;;;;;4.10;2.40;;;;;;;13.59;31.10;100946.66;4944450;29;20236;-70
2022/04/18 15:28:00;;;;;;;5.13;2.80;;;;;;;13.66;31.00;100940.28;4942092;29;20679;-70
2022/04/18 15:33:10;;;;;;;3.10;1.90;;;;;;;13.58;30.99;100942.34;4940664;29;20327;-70
2022/04/18 15:35:37;;;;;;;2.67;1.20;;;;;;;13.54;31.46;100944.16;4950996;28;20222;-69
2022/04/18 15:38:04;;;;;;;1.93;1.40;;;;;;;13.54;31.79;100938.09;4952408;28;20230;-69
2022/04/18 15:40:33;;;;;;;1.50;1.40;;;;;;;13.58;31.95;100934.47;4951167;29;20217;-70
2022/04/18 15:43:00;;;;;;;1.77;1.50;;;;;;;13.48;31.22;100933.06;4952221;29;20217;-69
2022/04/18 15:45:26;;;;;;;2.80;1.90;;;;;;;13.53;31.74;100933.78;4951307;28;20230;-69
2022/04/18 15:47:54;;;;;;;2.70;1.70;;;;;;;13.40;31.02;100930.69;4951141;28;20208;-70
2022/04/18 15:50:22;;;;;;;1.90;1.47;;;;;;;13.47;31.63;100936.56;4950621;28;20222;-70
2022/04/18 15:52:48;;;;;;;2.07;1.33;;;;;;;13.45;31.75;100931.38;4949410;28;20210;-70
2022/04/18 15:55:14;;;;;;;2.13;1.40;;;;;;;13.50;31.48;100933.84;4944623;28;20207;-70
2022/04/18 15:57:42;;;;;;;2.40;1.40;;;;;;;13.48;30.83;100933.91;4943218;29;20199;-69
2022/04/18 16:00:09;;;;;;;1.53;1.20;;;;;;;13.47;31.60;100932.19;4942710;29;20199;-70
2022/04/18 16:02:36;;;;;;;3.10;1.47;;;;;;;13.39;30.46;100932.44;4949661;29;20795;-70
2022/04/18 16:05:03;;;;;;;2.13;1.10;;;;;;;13.33;30.66;100929.16;4947376;28;20226;-70
2022/04/18 16:07:29;;;;;;;3.43;1.43;;;;;;;13.30;31.17;100924.88;4947539;28;20655;-70
2022/04/18 16:09:56;;;;;;;2.17;1.60;;;;;;;13.17;30.71;100928.78;4950520;28;20222;-70
2022/04/18 16:12:22;;;;;;;1.60;1.50;;;;;;;13.13;30.98;100922.78;4950564;28;20215;-70
2022/04/18 16:14:50;;;;;;;1.73;1.40;;;;;;;13.13;31.18;100921.94;4951501;28;20206;-70
2022/04/18 16:17:16;;;;;;;2.27;1.63;;;;;;;13.11;31.36;100927.22;4949519;29;20223;-70
2022/04/18 16:19:43;;;;;;;2.40;1.60;;;;;;;13.06;31.02;100921.28;4951172;28;20214;-70
2022/04/18 16:22:09;;;;;;;1.60;1.50;;;;;;;13.04;31.43;100917.84;4947966;28;20219;-70
2022/04/18 16:24:35;;;;;;;2.37;1.87;;;;;;;13.01;31.02;100921.41;4947227;28;20225;-70
2022/04/18 16:27:02;;;;;;;3.93;1.70;;;;;;;12.95;31.77;100919.00;4951880;28;20230;-70
2022/04/18 16:32:14;;;;;;;4.43;2.50;;;;;;;12.95;32.23;100919.00;4950938;28;20205;-69
2022/04/18 16:34:40;;;;;;;2.87;2.07;;;;;;;12.89;32.23;100916.56;4948192;28;20216;-69
2022/04/18 16:37:07;;;;;;;2.70;2.10;;;;;;;12.85;32.04;100912.34;4952322;28;20862;-70
2022/04/18 16:39:34;;;;;;;3.40;2.33;;;;;;;12.76;32.14;100912.63;4949635;28;20259;-70
2022/04/18 16:47:32;;;;;;;3.97;2.63;;;;;;;12.64;33.86;100904.22;4933283;28;20220;-69
2022/04/18 16:49:59;;;;;;;3.77;3.00;;;;;;;12.62;33.97;100898.19;4947051;28;20190;-70